sensor_id;sensor_type;location;lat;lon;timestamp;pressure;altitude;pressure_sealevel;temperature;humidity
41688;BME280;27371;42.686;23.362;2023-08-30T00:03:12;167581.06;;;20.60;82.73
41688;BME280;27371;42.686;23.362;2023-08-30T00:05:41;167567.63;;;20.55;83.66
41688;BME280;27371;42.686;23.362;2023-08-30T00:08:07;167555.47;;;20.50;83.27
41688;BME280;27371;42.686;23.362;2023-08-30T00:10:33;167556.81;;;20.51;82.73
41688;BME280;27371;42.686;23.362;2023-08-30T00:12:59;167555.47;;;20.50;81.85
41688;BME280;27371;42.686;23.362;2023-08-30T00:15:24;167544.75;;;20.46;80.82
41688;BME280;27371;42.686;23.362;2023-08-30T00:17:50;167531.31;;;20.41;79.67
41688;BME280;27371;42.686;23.362;2023-08-30T00:20:19;167496.38;;;20.28;79.54
41688;BME280;27371;42.686;23.362;2023-08-30T00:22:45;167511.13;;;20.33;79.55
41688;BME280;27371;42.686;23.362;2023-08-30T00:25:11;167486.97;;;20.24;78.67
41688;BME280;27371;42.686;23.362;2023-08-30T00:27:36;167484.25;;;20.23;78.03
41688;BME280;27371;42.686;23.362;2023-08-30T00:30:02;167476.19;;;20.20;77.79
41688;BME280;27371;42.686;23.362;2023-08-30T00:32:27;167486.97;;;20.24;78.18
41688;BME280;27371;42.686;23.362;2023-08-30T00:34:53;167481.59;;;20.22;77.09
41688;BME280;27371;42.686;23.362;2023-08-30T00:37:18;167460.09;;;20.14;77.24
41688;BME280;27371;42.686;23.362;2023-08-30T00:39:44;167446.66;;;20.09;77.22
41688;BME280;27371;42.686;23.362;2023-08-30T00:42:10;167438.59;;;20.06;76.77
41688;BME280;27371;42.686;23.362;2023-08-30T00:44:35;167450.69;;;20.10;75.50
41688;BME280;27371;42.686;23.362;2023-08-30T00:47:02;167445.31;;;20.08;75.21
41688;BME280;27371;42.686;23.362;2023-08-30T00:49:31;167431.88;;;20.03;75.34
41688;BME280;27371;42.686;23.362;2023-08-30T00:51:57;167411.72;;;19.95;75.46
41688;BME280;27371;42.686;23.362;2023-08-30T00:54:24;167431.88;;;20.03;75.77
41688;BME280;27371;42.686;23.362;2023-08-30T00:56:49;167430.53;;;20.02;76.62
41688;BME280;27371;42.686;23.362;2023-08-30T00:59:16;167425.16;;;20.00;77.15
41688;BME280;27371;42.686;23.362;2023-08-30T01:01:42;167411.72;;;19.95;77.70
41688;BME280;27371;42.686;23.362;2023-08-30T01:04:07;167409.03;;;19.94;78.00
41688;BME280;27371;42.686;23.362;2023-08-30T01:06:35;167401.00;;;19.91;77.10
41688;BME280;27371;42.686;23.362;2023-08-30T01:09:01;167394.28;;;19.89;77.06
41688;BME280;27371;42.686;23.362;2023-08-30T01:14:25;167391.59;;;19.88;75.96
41688;BME280;27371;42.686;23.362;2023-08-30T01:16:52;167392.94;;;19.88;75.20
41688;BME280;27371;42.686;23.362;2023-08-30T01:19:49;167413.09;;;19.96;74.81
41688;BME280;27371;42.686;23.362;2023-08-30T01:24:53;167415.75;;;19.97;75.13
41688;BME280;27371;42.686;23.362;2023-08-30T01:27:20;167422.47;;;19.99;74.33
41688;BME280;27371;42.686;23.362;2023-08-30T01:29:49;167434.53;;;20.04;73.99
41688;BME280;27371;42.686;23.362;2023-08-30T01:32:15;167441.25;;;20.07;74.70
41688;BME280;27371;42.686;23.362;2023-08-30T01:34:42;167418.44;;;19.98;74.94
41688;BME280;27371;42.686;23.362;2023-08-30T01:37:11;167443.97;;;20.08;75.54
41688;BME280;27371;42.686;23.362;2023-08-30T01:39:40;167452.03;;;20.11;75.49
41688;BME280;27371;42.686;23.362;2023-08-30T01:42:08;167446.66;;;20.09;75.50
41688;BME280;27371;42.686;23.362;2023-08-30T01:44:35;167433.19;;;20.03;75.33
41688;BME280;27371;42.686;23.362;2023-08-30T01:47:00;167431.88;;;20.03;75.37
41688;BME280;27371;42.686;23.362;2023-08-30T01:49:29;167435.94;;;20.05;74.85
41688;BME280;27371;42.686;23.362;2023-08-30T01:51:57;167391.59;;;19.88;74.90
41688;BME280;27371;42.686;23.362;2023-08-30T01:54:23;167439.94;;;20.06;75.18
41688;BME280;27371;42.686;23.362;2023-08-30T01:56:49;167405.00;;;19.93;75.63
41688;BME280;27371;42.686;23.362;2023-08-30T01:59:15;167376.78;;;19.82;76.00
41688;BME280;27371;42.686;23.362;2023-08-30T02:01:40;167345.91;;;19.70;75.84
41688;BME280;27371;42.686;23.362;2023-08-30T02:04:06;167324.34;;;19.62;75.45
41688;BME280;27371;42.686;23.362;2023-08-30T02:06:38;167358.00;;;19.75;75.55
41688;BME280;27371;42.686;23.362;2023-08-30T02:09:12;167212.91;;;19.20;74.92
41688;BME280;27371;42.686;23.362;2023-08-30T02:11:41;167358.00;;;19.75;74.95
41688;BME280;27371;42.686;23.362;2023-08-30T02:14:10;167374.13;;;19.81;75.34
41688;BME280;27371;42.686;23.362;2023-08-30T02:16:38;167358.00;;;19.75;75.35
41688;BME280;27371;42.686;23.362;2023-08-30T02:19:06;167344.56;;;19.70;75.44
41688;BME280;27371;42.686;23.362;2023-08-30T02:21:33;167332.41;;;19.65;75.22
41688;BME280;27371;42.686;23.362;2023-08-30T02:23:58;167336.50;;;19.67;75.62
41688;BME280;27371;42.686;23.362;2023-08-30T02:26:24;167337.84;;;19.67;75.71
41688;BME280;27371;42.686;23.362;2023-08-30T02:28:49;167355.34;;;19.74;75.41
41688;BME280;27371;42.686;23.362;2023-08-30T02:31:15;167345.91;;;19.70;75.27
41688;BME280;27371;42.686;23.362;2023-08-30T02:33:40;167364.72;;;19.77;75.07
41688;BME280;27371;42.686;23.362;2023-08-30T02:36:06;167351.28;;;19.72;75.43
41688;BME280;27371;42.686;23.362;2023-08-30T02:38:31;167355.34;;;19.74;74.96
41688;BME280;27371;42.686;23.362;2023-08-30T02:40:57;167332.41;;;19.65;75.00
41688;BME280;27371;42.686;23.362;2023-08-30T02:43:22;167337.84;;;19.67;75.21
41688;BME280;27371;42.686;23.362;2023-08-30T02:45:48;167356.66;;;19.74;75.23
41688;BME280;27371;42.686;23.362;2023-08-30T02:48:14;167353.94;;;19.73;75.29
41688;BME280;27371;42.686;23.362;2023-08-30T02:50:40;167336.50;;;19.67;75.44
41688;BME280;27371;42.686;23.362;2023-08-30T02:53:06;167328.41;;;19.64;75.68
41688;BME280;27371;42.686;23.362;2023-08-30T02:55:34;167296.16;;;19.51;75.97
41688;BME280;27371;42.686;23.362;2023-08-30T02:58:00;167321.69;;;19.61;76.23
41688;BME280;27371;42.686;23.362;2023-08-30T03:00:25;167261.28;;;19.38;76.12
41688;BME280;27371;42.686;23.362;2023-08-30T03:02:51;167288.09;;;19.48;75.91
41688;BME280;27371;42.686;23.362;2023-08-30T03:05:17;167286.75;;;19.48;75.90
41688;BME280;27371;42.686;23.362;2023-08-30T03:07:43;167265.28;;;19.40;76.14
41688;BME280;27371;42.686;23.362;2023-08-30T03:10:09;167277.38;;;19.44;76.52
41688;BME280;27371;42.686;23.362;2023-08-30T03:12:34;167272.00;;;19.42;76.88
41688;BME280;27371;42.686;23.362;2023-08-30T03:15:00;167249.19;;;19.33;77.42
41688;BME280;27371;42.686;23.362;2023-08-30T03:17:25;167255.88;;;19.36;77.76
41688;BME280;27371;42.686;23.362;2023-08-30T03:19:52;167237.06;;;19.29;77.82
41688;BME280;27371;42.686;23.362;2023-08-30T03:22:18;167233.06;;;19.27;78.06
41688;BME280;27371;42.686;23.362;2023-08-30T03:24:44;167239.78;;;19.30;78.14
41688;BME280;27371;42.686;23.362;2023-08-30T03:27:09;167237.06;;;19.29;78.02
41688;BME280;27371;42.686;23.362;2023-08-30T03:29:35;167225.03;;;19.24;78.81
41688;BME280;27371;42.686;23.362;2023-08-30T03:32:00;167180.66;;;19.07;79.52
41688;BME280;27371;42.686;23.362;2023-08-30T03:34:26;167167.28;;;19.02;81.44
41688;BME280;27371;42.686;23.362;2023-08-30T03:36:51;167126.97;;;18.87;83.00
41688;BME280;27371;42.686;23.362;2023-08-30T03:39:22;167101.44;;;18.77;83.30
41688;BME280;27371;42.686;23.362;2023-08-30T03:41:49;167100.13;;;18.77;83.76
41688;BME280;27371;42.686;23.362;2023-08-30T03:44:14;167108.16;;;18.80;83.83
41688;BME280;27371;42.686;23.362;2023-08-30T03:46:40;167085.31;;;18.71;84.08
41688;BME280;27371;42.686;23.362;2023-08-30T03:49:06;167035.63;;;18.52;84.46
41688;BME280;27371;42.686;23.362;2023-08-30T03:51:31;167026.25;;;18.48;85.81
41688;BME280;27371;42.686;23.362;2023-08-30T03:53:57;166990.00;;;18.35;86.52
41688;BME280;27371;42.686;23.362;2023-08-30T03:56:23;166965.88;;;18.25;87.07
41688;BME280;27371;42.686;23.362;2023-08-30T03:58:48;166949.72;;;18.19;87.37
41688;BME280;27371;42.686;23.362;2023-08-30T04:01:14;166948.38;;;18.19;87.66
41688;BME280;27371;42.686;23.362;2023-08-30T04:03:40;166957.81;;;18.22;87.87
41688;BME280;27371;42.686;23.362;2023-08-30T04:06:06;166943.06;;;18.17;88.46
41688;BME280;27371;42.686;23.362;2023-08-30T04:08:31;166917.53;;;18.07;89.26
41688;BME280;27371;42.686;23.362;2023-08-30T04:10:57;166955.09;;;18.21;89.51
41688;BME280;27371;42.686;23.362;2023-08-30T04:13:23;166904.13;;;18.02;90.23
41688;BME280;27371;42.686;23.362;2023-08-30T04:15:48;166928.31;;;18.11;91.31
41688;BME280;27371;42.686;23.362;2023-08-30T04:18:14;166912.16;;;18.05;92.46
41688;BME280;27371;42.686;23.362;2023-08-30T04:20:46;166894.72;;;17.98;93.30
41688;BME280;27371;42.686;23.362;2023-08-30T04:23:12;166889.34;;;17.96;93.95
41688;BME280;27371;42.686;23.362;2023-08-30T04:25:38;166909.50;;;18.04;94.17
41688;BME280;27371;42.686;23.362;2023-08-30T04:28:04;166936.34;;;18.14;94.13
41688;BME280;27371;42.686;23.362;2023-08-30T04:30:30;166854.47;;;17.83;93.96
41688;BME280;27371;42.686;23.362;2023-08-30T04:32:55;167038.34;;;18.53;92.47
41688;BME280;27371;42.686;23.362;2023-08-30T04:35:21;167104.16;;;18.78;90.89
41688;BME280;27371;42.686;23.362;2023-08-30T04:37:47;167159.19;;;18.99;89.76
41688;BME280;27371;42.686;23.362;2023-08-30T04:40:13;167312.31;;;19.57;86.73
41688;BME280;27371;42.686;23.362;2023-08-30T04:42:39;167396.94;;;19.90;84.64
41688;BME280;27371;42.686;23.362;2023-08-30T04:45:05;167555.47;;;20.50;82.26
41688;BME280;27371;42.686;23.362;2023-08-30T04:47:32;167677.81;;;20.97;79.16
41688;BME280;27371;42.686;23.362;2023-08-30T04:49:57;167747.72;;;21.23;76.02
41688;BME280;27371;42.686;23.362;2023-08-30T04:52:23;167731.53;;;21.17;74.14
41688;BME280;27371;42.686;23.362;2023-08-30T04:54:49;167720.81;;;21.13;74.78
41688;BME280;27371;42.686;23.362;2023-08-30T04:57:15;167667.09;;;20.93;74.80
41688;BME280;27371;42.686;23.362;2023-08-30T04:59:42;167645.59;;;20.84;74.84
41688;BME280;27371;42.686;23.362;2023-08-30T05:02:08;167577.03;;;20.58;75.24
41688;BME280;27371;42.686;23.362;2023-08-30T05:04:33;167533.97;;;20.42;74.53
41688;BME280;27371;42.686;23.362;2023-08-30T05:06:59;167476.19;;;20.20;74.12
41688;BME280;27371;42.686;23.362;2023-08-30T05:09:24;167418.44;;;19.98;73.22
41688;BME280;27371;42.686;23.362;2023-08-30T05:11:53;167388.88;;;19.87;74.92
41688;BME280;27371;42.686;23.362;2023-08-30T05:14:19;167374.13;;;19.81;76.17
41688;BME280;27371;42.686;23.362;2023-08-30T05:16:45;167386.22;;;19.86;76.03
41688;BME280;27371;42.686;23.362;2023-08-30T05:19:11;167392.94;;;19.88;76.10
41688;BME280;27371;42.686;23.362;2023-08-30T05:21:36;167414.44;;;19.96;75.87
41688;BME280;27371;42.686;23.362;2023-08-30T05:24:03;167447.97;;;20.09;76.51
41688;BME280;27371;42.686;23.362;2023-08-30T05:26:28;167516.53;;;20.35;75.32
41688;BME280;27371;42.686;23.362;2023-08-30T05:28:54;167593.13;;;20.64;73.93
41688;BME280;27371;42.686;23.362;2023-08-30T05:31:19;167688.59;;;21.01;71.88
41688;BME280;27371;42.686;23.362;2023-08-30T05:33:45;167770.56;;;21.32;70.11
41688;BME280;27371;42.686;23.362;2023-08-30T05:36:10;167797.50;;;21.42;68.76
41688;BME280;27371;42.686;23.362;2023-08-30T05:38:36;167813.63;;;21.48;67.35
41688;BME280;27371;42.686;23.362;2023-08-30T05:41:01;167848.59;;;21.62;66.00
41688;BME280;27371;42.686;23.362;2023-08-30T05:43:27;167915.81;;;21.87;63.76
41688;BME280;27371;42.686;23.362;2023-08-30T05:45:53;167984.34;;;22.13;61.96
41688;BME280;27371;42.686;23.362;2023-08-30T05:48:18;168039.56;;;22.34;60.14
41688;BME280;27371;42.686;23.362;2023-08-30T05:50:43;168038.22;;;22.34;59.10
41688;BME280;27371;42.686;23.362;2023-08-30T05:53:10;168085.28;;;22.52;58.01
41688;BME280;27371;42.686;23.362;2023-08-30T05:55:36;168128.31;;;22.68;57.54
41688;BME280;27371;42.686;23.362;2023-08-30T05:58:02;168152.56;;;22.77;57.02
41688;BME280;27371;42.686;23.362;2023-08-30T06:00:31;168186.16;;;22.90;56.65
41688;BME280;27371;42.686;23.362;2023-08-30T06:02:56;168202.34;;;22.96;55.56
41688;BME280;27371;42.686;23.362;2023-08-30T06:05:22;168186.16;;;22.90;55.81
41688;BME280;27371;42.686;23.362;2023-08-30T06:07:47;168241.38;;;23.11;55.39
41688;BME280;27371;42.686;23.362;2023-08-30T06:10:13;168242.72;;;23.11;54.78
41688;BME280;27371;42.686;23.362;2023-08-30T06:12:38;168269.63;;;23.22;54.53
41688;BME280;27371;42.686;23.362;2023-08-30T06:15:04;168319.41;;;23.41;54.58
41688;BME280;27371;42.686;23.362;2023-08-30T06:17:30;168386.69;;;23.66;53.39
41688;BME280;27371;42.686;23.362;2023-08-30T06:19:55;168369.16;;;23.60;53.95
41688;BME280;27371;42.686;23.362;2023-08-30T06:22:21;168398.88;;;23.71;53.86
41688;BME280;27371;42.686;23.362;2023-08-30T06:24:47;168425.75;;;23.81;52.68
41688;BME280;27371;42.686;23.362;2023-08-30T06:27:12;168474.22;;;23.99;52.71
41688;BME280;27371;42.686;23.362;2023-08-30T06:29:38;168576.50;;;24.38;51.36
41688;BME280;27371;42.686;23.362;2023-08-30T06:32:04;168629.03;;;24.58;51.08
41688;BME280;27371;42.686;23.362;2023-08-30T06:34:30;168619.63;;;24.55;50.33
41688;BME280;27371;42.686;23.362;2023-08-30T06:36:55;168580.56;;;24.40;51.14
41688;BME280;27371;42.686;23.362;2023-08-30T06:39:21;168620.97;;;24.55;51.16
41688;BME280;27371;42.686;23.362;2023-08-30T06:41:46;168700.41;;;24.85;51.72
41688;BME280;27371;42.686;23.362;2023-08-30T06:44:12;168734.06;;;24.98;52.21
41688;BME280;27371;42.686;23.362;2023-08-30T06:46:37;168794.72;;;25.21;52.26
41688;BME280;27371;42.686;23.362;2023-08-30T06:49:03;168851.28;;;25.43;51.84
41688;BME280;27371;42.686;23.362;2023-08-30T06:51:29;168940.16;;;25.76;50.13
41688;BME280;27371;42.686;23.362;2023-08-30T06:53:54;168971.16;;;25.88;48.73
41688;BME280;27371;42.686;23.362;2023-08-30T06:56:22;169004.88;;;26.01;48.49
41688;BME280;27371;42.686;23.362;2023-08-30T06:58:48;169003.53;;;26.01;47.70
41688;BME280;27371;42.686;23.362;2023-08-30T07:01:13;169021.03;;;26.07;47.02
41688;BME280;27371;42.686;23.362;2023-08-30T07:03:39;169026.44;;;26.09;48.71
41688;BME280;27371;42.686;23.362;2023-08-30T07:06:05;169092.44;;;26.34;49.27
41688;BME280;27371;42.686;23.362;2023-08-30T07:08:31;169096.50;;;26.36;49.00
41688;BME280;27371;42.686;23.362;2023-08-30T07:10:57;169112.66;;;26.42;48.36
41688;BME280;27371;42.686;23.362;2023-08-30T07:13:23;169118.06;;;26.44;46.28
41688;BME280;27371;42.686;23.362;2023-08-30T07:15:48;169069.53;;;26.26;46.53
41688;BME280;27371;42.686;23.362;2023-08-30T07:18:14;169046.63;;;26.17;46.85
41688;BME280;27371;42.686;23.362;2023-08-30T07:20:39;169060.13;;;26.22;46.50
41688;BME280;27371;42.686;23.362;2023-08-30T07:23:05;169088.41;;;26.33;47.26
41688;BME280;27371;42.686;23.362;2023-08-30T07:25:30;169076.28;;;26.28;47.32
41688;BME280;27371;42.686;23.362;2023-08-30T07:27:58;169053.38;;;26.19;47.50
41688;BME280;27371;42.686;23.362;2023-08-30T07:30:23;169018.34;;;26.06;47.54
41688;BME280;27371;42.686;23.362;2023-08-30T07:32:49;168988.72;;;25.95;48.24
41688;BME280;27371;42.686;23.362;2023-08-30T07:35:14;169007.53;;;26.02;48.37
41688;BME280;27371;42.686;23.362;2023-08-30T07:37:40;169003.53;;;26.01;48.67
41688;BME280;27371;42.686;23.362;2023-08-30T07:40:06;169052.03;;;26.19;47.94
41688;BME280;27371;42.686;23.362;2023-08-30T07:42:32;169078.94;;;26.29;47.09
41688;BME280;27371;42.686;23.362;2023-08-30T07:44:57;169093.78;;;26.35;47.31
41688;BME280;27371;42.686;23.362;2023-08-30T07:47:23;169053.38;;;26.19;47.26
41688;BME280;27371;42.686;23.362;2023-08-30T07:49:48;169047.97;;;26.17;47.33
41688;BME280;27371;42.686;23.362;2023-08-30T07:52:14;169064.13;;;26.24;47.80
41688;BME280;27371;42.686;23.362;2023-08-30T07:54:40;169099.16;;;26.37;47.36
41688;BME280;27371;42.686;23.362;2023-08-30T07:57:06;169141.00;;;26.53;46.38
41688;BME280;27371;42.686;23.362;2023-08-30T07:59:33;169229.91;;;26.86;44.53
41688;BME280;27371;42.686;23.362;2023-08-30T08:01:59;169244.75;;;26.92;43.32
41688;BME280;27371;42.686;23.362;2023-08-30T08:04:25;169250.16;;;26.94;44.38
41688;BME280;27371;42.686;23.362;2023-08-30T08:06:50;169263.63;;;26.99;44.45
41688;BME280;27371;42.686;23.362;2023-08-30T08:09:17;169295.94;;;27.12;43.65
41688;BME280;27371;42.686;23.362;2023-08-30T08:11:42;169282.47;;;27.06;43.92
41688;BME280;27371;42.686;23.362;2023-08-30T08:14:11;169326.97;;;27.23;43.89
41688;BME280;27371;42.686;23.362;2023-08-30T08:16:38;169393.03;;;27.48;42.90
41688;BME280;27371;42.686;23.362;2023-08-30T08:19:04;169355.28;;;27.34;41.34
41688;BME280;27371;42.686;23.362;2023-08-30T08:21:29;169301.34;;;27.14;40.71
41688;BME280;27371;42.686;23.362;2023-08-30T08:24:13;169305.38;;;27.15;41.85
41688;BME280;27371;42.686;23.362;2023-08-30T08:26:39;169349.94;;;27.32;41.37
41688;BME280;27371;42.686;23.362;2023-08-30T08:29:04;169401.16;;;27.51;39.25
41688;BME280;27371;42.686;23.362;2023-08-30T08:31:30;169411.91;;;27.56;38.91
41688;BME280;27371;42.686;23.362;2023-08-30T08:34:10;169441.56;;;27.67;39.01
41688;BME280;27371;42.686;23.362;2023-08-30T08:36:37;169411.91;;;27.56;37.76
41688;BME280;27371;42.686;23.362;2023-08-30T08:39:03;169353.94;;;27.34;38.96
41688;BME280;27371;42.686;23.362;2023-08-30T08:41:39;169393.03;;;27.48;39.57
41688;BME280;27371;42.686;23.362;2023-08-30T08:44:06;169428.06;;;27.62;39.30
41688;BME280;27371;42.686;23.362;2023-08-30T08:46:34;169478.00;;;27.81;38.15
41688;BME280;27371;42.686;23.362;2023-08-30T08:49:14;169503.66;;;27.90;37.65
41688;BME280;27371;42.686;23.362;2023-08-30T08:51:41;169557.56;;;28.11;36.09
41688;BME280;27371;42.686;23.362;2023-08-30T08:54:07;169600.72;;;28.27;35.65
41688;BME280;27371;42.686;23.362;2023-08-30T08:56:34;169610.13;;;28.31;35.32
41688;BME280;27371;42.686;23.362;2023-08-30T08:59:01;169511.75;;;27.93;35.91
41688;BME280;27371;42.686;23.362;2023-08-30T09:01:27;169517.13;;;27.95;36.40
41688;BME280;27371;42.686;23.362;2023-08-30T09:03:53;169562.97;;;28.13;36.33
41688;BME280;27371;42.686;23.362;2023-08-30T09:06:19;169589.94;;;28.23;36.08
41688;BME280;27371;42.686;23.362;2023-08-30T09:08:46;169606.13;;;28.29;36.22
41688;BME280;27371;42.686;23.362;2023-08-30T09:11:11;169588.56;;;28.23;36.68
41688;BME280;27371;42.686;23.362;2023-08-30T09:13:36;169626.34;;;28.37;36.65
41688;BME280;27371;42.686;23.362;2023-08-30T09:16:02;169624.97;;;28.36;37.14
41688;BME280;27371;42.686;23.362;2023-08-30T09:18:28;169630.38;;;28.38;36.56
41688;BME280;27371;42.686;23.362;2023-08-30T09:21:06;169608.78;;;28.30;36.68
41688;BME280;27371;42.686;23.362;2023-08-30T09:23:32;169607.47;;;28.30;37.13
41688;BME280;27371;42.686;23.362;2023-08-30T09:25:59;169600.72;;;28.27;37.13
41688;BME280;27371;42.686;23.362;2023-08-30T09:28:24;169626.34;;;28.37;37.13
41688;BME280;27371;42.686;23.362;2023-08-30T09:30:50;169641.22;;;28.42;37.11
41688;BME280;27371;42.686;23.362;2023-08-30T09:33:21;169629.03;;;28.38;36.70
41688;BME280;27371;42.686;23.362;2023-08-30T09:35:49;169629.03;;;28.38;37.03
41688;BME280;27371;42.686;23.362;2023-08-30T09:38:21;169624.97;;;28.36;36.66
41688;BME280;27371;42.686;23.362;2023-08-30T09:40:47;169669.50;;;28.53;36.52
41688;BME280;27371;42.686;23.362;2023-08-30T09:43:13;169657.41;;;28.49;36.69
41688;BME280;27371;42.686;23.362;2023-08-30T09:45:40;169624.97;;;28.36;36.43
41688;BME280;27371;42.686;23.362;2023-08-30T09:48:07;169537.31;;;28.03;36.79
41688;BME280;27371;42.686;23.362;2023-08-30T09:50:36;169503.66;;;27.90;37.50
41688;BME280;27371;42.686;23.362;2023-08-30T09:53:08;169596.63;;;28.26;36.87
41688;BME280;27371;42.686;23.362;2023-08-30T09:55:38;169603.38;;;28.28;36.96
41688;BME280;27371;42.686;23.362;2023-08-30T09:58:03;169661.41;;;28.50;36.61
41688;BME280;27371;42.686;23.362;2023-08-30T10:00:33;169641.22;;;28.42;36.64
41688;BME280;27371;42.686;23.362;2023-08-30T10:02:59;169604.78;;;28.29;36.86
41688;BME280;27371;42.686;23.362;2023-08-30T10:05:29;169620.94;;;28.35;36.91
41688;BME280;27371;42.686;23.362;2023-08-30T10:07:55;169600.72;;;28.27;36.66
41688;BME280;27371;42.686;23.362;2023-08-30T10:10:23;169596.63;;;28.26;37.01
41688;BME280;27371;42.686;23.362;2023-08-30T10:12:49;169606.13;;;28.29;37.12
41688;BME280;27371;42.686;23.362;2023-08-30T10:15:15;169618.22;;;28.34;37.23
41688;BME280;27371;42.686;23.362;2023-08-30T10:17:44;169587.22;;;28.22;37.09
41688;BME280;27371;42.686;23.362;2023-08-30T10:20:10;169525.22;;;27.98;37.37
41688;BME280;27371;42.686;23.362;2023-08-30T10:22:38;169553.53;;;28.09;37.96
41688;BME280;27371;42.686;23.362;2023-08-30T10:25:18;169610.13;;;28.31;37.59
41688;BME280;27371;42.686;23.362;2023-08-30T10:27:49;169635.78;;;28.40;37.03
41688;BME280;27371;42.686;23.362;2023-08-30T10:30:15;169641.22;;;28.42;36.85
41688;BME280;27371;42.686;23.362;2023-08-30T10:32:43;169587.22;;;28.22;37.49
41688;BME280;27371;42.686;23.362;2023-08-30T10:35:16;169620.94;;;28.35;37.46
41688;BME280;27371;42.686;23.362;2023-08-30T10:37:53;169641.22;;;28.42;36.79
41688;BME280;27371;42.686;23.362;2023-08-30T10:40:19;169677.66;;;28.56;36.80
41688;BME280;27371;42.686;23.362;2023-08-30T10:42:45;169643.91;;;28.44;36.39
41688;BME280;27371;42.686;23.362;2023-08-30T10:45:10;169560.22;;;28.12;36.75
41688;BME280;27371;42.686;23.362;2023-08-30T10:47:37;169494.19;;;27.87;37.29
41688;BME280;27371;42.686;23.362;2023-08-30T10:50:07;169494.19;;;27.87;37.73
41688;BME280;27371;42.686;23.362;2023-08-30T10:52:33;169505.00;;;27.91;37.78
41688;BME280;27371;42.686;23.362;2023-08-30T10:55:12;169510.41;;;27.93;37.56
41688;BME280;27371;42.686;23.362;2023-08-30T10:57:42;169531.97;;;28.01;37.96
41688;BME280;27371;42.686;23.362;2023-08-30T11:00:19;169546.78;;;28.07;37.51
41688;BME280;27371;42.686;23.362;2023-08-30T11:02:48;169554.88;;;28.10;37.65
41688;BME280;27371;42.686;23.362;2023-08-30T11:05:18;169572.38;;;28.16;37.56
41688;BME280;27371;42.686;23.362;2023-08-30T11:07:44;169575.06;;;28.17;37.44
41688;BME280;27371;42.686;23.362;2023-08-30T11:10:10;169575.06;;;28.17;36.73
41688;BME280;27371;42.686;23.362;2023-08-30T11:12:36;169565.66;;;28.14;37.33
41688;BME280;27371;42.686;23.362;2023-08-30T11:15:03;169557.56;;;28.11;37.42
41688;BME280;27371;42.686;23.362;2023-08-30T11:17:29;169572.38;;;28.16;37.33
41688;BME280;27371;42.686;23.362;2023-08-30T11:20:05;169592.63;;;28.24;37.22
41688;BME280;27371;42.686;23.362;2023-08-30T11:22:35;169562.97;;;28.13;37.42
41688;BME280;27371;42.686;23.362;2023-08-30T11:25:00;169536.00;;;28.03;37.05
41688;BME280;27371;42.686;23.362;2023-08-30T11:27:26;169506.34;;;27.91;37.49
41688;BME280;27371;42.686;23.362;2023-08-30T11:29:51;169451.00;;;27.70;37.52
41688;BME280;27371;42.686;23.362;2023-08-30T11:32:16;169438.88;;;27.66;37.75
41688;BME280;27371;42.686;23.362;2023-08-30T11:34:42;169417.31;;;27.58;37.91
41688;BME280;27371;42.686;23.362;2023-08-30T11:37:08;169438.88;;;27.66;37.92
41688;BME280;27371;42.686;23.362;2023-08-30T11:39:33;169444.25;;;27.68;37.27
41688;BME280;27371;42.686;23.362;2023-08-30T11:41:59;169428.06;;;27.62;37.58
41688;BME280;27371;42.686;23.362;2023-08-30T11:44:28;169414.59;;;27.57;37.60
41688;BME280;27371;42.686;23.362;2023-08-30T11:47:00;169432.16;;;27.63;37.51
41688;BME280;27371;42.686;23.362;2023-08-30T11:49:27;169465.81;;;27.76;37.78
41688;BME280;27371;42.686;23.362;2023-08-30T11:51:54;169430.81;;;27.63;37.59
41688;BME280;27371;42.686;23.362;2023-08-30T11:54:23;169510.41;;;27.93;37.05
41688;BME280;27371;42.686;23.362;2023-08-30T11:56:48;169502.25;;;27.90;37.34
41688;BME280;27371;42.686;23.362;2023-08-30T11:59:21;169475.34;;;27.80;36.70
41688;BME280;27371;42.686;23.362;2023-08-30T12:01:53;169484.75;;;27.83;36.80
41688;BME280;27371;42.686;23.362;2023-08-30T12:04:18;169487.44;;;27.84;36.51
41688;BME280;27371;42.686;23.362;2023-08-30T12:06:51;169515.75;;;27.95;34.81
41688;BME280;27371;42.686;23.362;2023-08-30T12:09:17;169506.34;;;27.91;35.20
41688;BME280;27371;42.686;23.362;2023-08-30T12:11:43;169538.66;;;28.04;35.06
41688;BME280;27371;42.686;23.362;2023-08-30T12:14:09;169545.41;;;28.06;35.10
41688;BME280;27371;42.686;23.362;2023-08-30T12:16:35;169591.28;;;28.24;34.57
41688;BME280;27371;42.686;23.362;2023-08-30T12:19:12;169618.22;;;28.34;34.16
41688;BME280;27371;42.686;23.362;2023-08-30T12:21:42;169568.38;;;28.15;34.16
41688;BME280;27371;42.686;23.362;2023-08-30T12:24:09;169587.22;;;28.22;34.71
41688;BME280;27371;42.686;23.362;2023-08-30T12:26:35;169622.28;;;28.35;34.27
41688;BME280;27371;42.686;23.362;2023-08-30T12:29:04;169647.97;;;28.45;33.85
41688;BME280;27371;42.686;23.362;2023-08-30T12:31:31;169661.41;;;28.50;33.93
41688;BME280;27371;42.686;23.362;2023-08-30T12:33:57;169707.31;;;28.68;33.36
41688;BME280;27371;42.686;23.362;2023-08-30T12:36:22;169728.88;;;28.76;32.75
41688;BME280;27371;42.686;23.362;2023-08-30T12:38:48;169786.88;;;28.98;32.07
41688;BME280;27371;42.686;23.362;2023-08-30T12:41:13;169866.50;;;29.28;29.32
41688;BME280;27371;42.686;23.362;2023-08-30T12:43:39;169929.88;;;29.52;27.62
41688;BME280;27371;42.686;23.362;2023-08-30T12:46:04;169989.28;;;29.74;27.98